createdAt,value
2022-11-04T00:00:09.871Z,33.90
2022-11-04T00:02:37.714Z,33.70
2022-11-04T00:05:05.509Z,32.88
2022-11-04T00:07:51.665Z,31.20
2022-11-04T00:10:39.289Z,33.90
2022-11-04T00:13:06.822Z,36.35
2022-11-04T00:15:56.438Z,33.83
2022-11-04T00:18:23.902Z,34.00
2022-11-04T00:21:10.017Z,37.20
2022-11-04T00:23:56.103Z,33.33
2022-11-04T00:26:42.322Z,33.75
2022-11-04T00:29:09.717Z,33.10
2022-11-04T00:32:00.396Z,30.05
2022-11-04T00:34:27.782Z,34.07
2022-11-04T00:36:55.464Z,39.08
2022-11-04T00:39:22.837Z,37.85
2022-11-04T00:41:50.243Z,35.15
2022-11-04T00:44:17.889Z,39.22
2022-11-04T00:46:45.316Z,34.00
2022-11-04T00:49:13.393Z,35.13
2022-11-04T00:51:41.119Z,37.25
2022-11-04T00:54:08.526Z,35.47
2022-11-04T00:56:39.630Z,40.12
2022-11-04T00:59:10.332Z,35.37
2022-11-04T01:01:41.674Z,37.13
2022-11-04T01:04:09.719Z,35.65
2022-11-04T01:06:37.171Z,43.30
2022-11-04T01:09:08.602Z,37.45
2022-11-04T01:11:36.277Z,36.73
2022-11-04T01:14:04.525Z,38.25
2022-11-04T01:16:32.316Z,38.25
2022-11-04T01:19:00.048Z,39.42
2022-11-04T01:21:27.441Z,39.63
2022-11-04T01:23:54.908Z,35.97
2022-11-04T01:26:25.677Z,35.67
2022-11-04T01:28:57.583Z,39.90
2022-11-04T01:31:28.222Z,43.00
2022-11-04T01:33:57.030Z,44.78
2022-11-04T01:36:26.057Z,50.47
2022-11-04T01:38:56.101Z,46.70
2022-11-04T01:41:26.533Z,49.10
2022-11-04T01:43:55.616Z,45.45
2022-11-04T01:46:22.960Z,47.42
2022-11-04T01:48:51.854Z,48.97
2022-11-04T01:51:21.480Z,44.67
2022-11-04T01:53:51.191Z,45.85
2022-11-04T01:56:20.746Z,46.58
2022-11-04T01:58:54.090Z,47.83
2022-11-04T02:01:21.891Z,44.93
2022-11-04T02:03:54.638Z,54.00
2022-11-04T02:06:23.016Z,50.78
2022-11-04T02:08:50.791Z,52.95
2022-11-04T02:11:36.903Z,49.38
2022-11-04T02:14:04.641Z,47.30
2022-11-04T02:16:43.305Z,47.95
2022-11-04T02:19:10.902Z,49.63
2022-11-04T02:22:09.382Z,51.80
2022-11-04T02:24:49.007Z,54.15
2022-11-04T02:27:37.445Z,63.93
2022-11-04T02:30:07.736Z,55.42
2022-11-04T02:32:52.534Z,64.68
2022-11-04T02:35:48.266Z,60.70
2022-11-04T02:38:35.384Z,65.85
2022-11-04T02:41:21.058Z,57.57
2022-11-04T02:43:53.282Z,67.32
2022-11-04T02:46:34.496Z,74.20
2022-11-04T02:49:15.804Z,71.40
2022-11-04T02:51:51.240Z,67.70
2022-11-04T02:54:42.418Z,77.17
2022-11-04T02:57:15.894Z,72.43
2022-11-04T03:00:13.514Z,81.37
2022-11-04T03:02:49.153Z,74.28
2022-11-04T03:05:20.662Z,82.93
2022-11-04T03:07:51.703Z,72.57
2022-11-04T03:10:27.354Z,66.28
2022-11-04T03:13:03.305Z,62.50
2022-11-04T03:15:35.432Z,66.45
2022-11-04T03:18:21.194Z,66.93
2022-11-04T03:20:50.089Z,81.63
2022-11-04T03:23:18.342Z,85.70
2022-11-04T03:25:48.181Z,101.62
2022-11-04T03:28:38.326Z,70.20
2022-11-04T03:31:08.156Z,66.37
2022-11-04T03:33:45.441Z,57.00
2022-11-04T03:36:13.369Z,63.87
2022-11-04T03:38:40.970Z,56.00
2022-11-04T03:41:38.661Z,55.20
2022-11-04T03:44:06.531Z,61.42
2022-11-04T03:46:34.324Z,63.03
2022-11-04T03:49:03.088Z,67.12
2022-11-04T03:51:30.775Z,109.20
2022-11-04T03:53:58.920Z,84.22
2022-11-04T03:56:56.391Z,86.63
2022-11-04T04:00:01.383Z,68.53
2022-11-04T04:02:41.999Z,83.05
2022-11-04T04:05:18.861Z,71.43
2022-11-04T04:08:15.677Z,69.68
2022-11-04T04:11:20.868Z,68.32
2022-11-04T04:14:06.741Z,63.60
2022-11-04T04:16:39.591Z,67.57
2022-11-04T04:19:17.685Z,76.45
2022-11-04T04:21:51.433Z,85.30
2022-11-04T04:24:40.581Z,58.50
2022-11-04T04:27:26.933Z,92.80
2022-11-04T04:29:54.743Z,79.95
2022-11-04T04:32:26.408Z,68.75
2022-11-04T04:35:16.997Z,71.10
2022-11-04T04:37:46.307Z,75.07
2022-11-04T04:40:37.806Z,66.20
2022-11-04T04:43:24.350Z,71.32
2022-11-04T04:45:54.273Z,93.97
2022-11-04T04:48:21.936Z,105.72
2022-11-04T04:50:52.882Z,60.47
2022-11-04T04:53:20.295Z,75.80
2022-11-04T04:55:47.955Z,77.15
2022-11-04T04:58:15.326Z,68.78
2022-11-04T05:00:42.717Z,88.03
2022-11-04T05:03:10.786Z,54.40
2022-11-04T05:05:38.424Z,86.93
2022-11-04T05:08:07.818Z,63.10
2022-11-04T05:10:36.044Z,55.00
2022-11-04T05:13:22.299Z,50.85
2022-11-04T05:15:49.959Z,59.90
2022-11-04T05:18:17.770Z,58.53
2022-11-04T05:20:45.261Z,59.85
2022-11-04T05:23:13.693Z,69.18
2022-11-04T05:25:42.411Z,47.38
2022-11-04T05:28:10.701Z,50.72
2022-11-04T05:30:38.781Z,40.03
2022-11-04T05:33:06.944Z,52.95
2022-11-04T05:35:35.074Z,65.45
2022-11-04T05:38:03.087Z,52.72
2022-11-04T05:40:30.553Z,102.07
2022-11-04T05:42:59.776Z,51.40
2022-11-04T05:45:28.534Z,86.47
2022-11-04T05:48:00.737Z,90.12
2022-11-04T05:50:30.017Z,84.62
2022-11-04T05:52:58.961Z,74.15
2022-11-04T05:55:29.782Z,82.87
2022-11-04T05:58:00.459Z,50.83
2022-11-04T06:00:28.186Z,65.80
2022-11-04T06:02:59.271Z,57.97
2022-11-04T06:05:27.966Z,45.50
2022-11-04T06:07:56.925Z,41.13
2022-11-04T06:10:25.344Z,46.88
2022-11-04T06:12:52.870Z,64.95
2022-11-04T06:15:20.575Z,82.15
2022-11-04T06:17:47.950Z,57.92
2022-11-04T06:20:15.486Z,64.03
2022-11-04T06:22:43.210Z,53.58
2022-11-04T06:25:10.752Z,65.05
2022-11-04T06:27:38.138Z,53.00
2022-11-04T06:30:07.003Z,44.55
2022-11-04T06:32:34.498Z,41.17
2022-11-04T06:35:01.892Z,38.88
2022-11-04T06:37:29.578Z,36.05
2022-11-04T06:39:56.971Z,36.28
2022-11-04T06:42:26.885Z,37.03
2022-11-04T06:44:54.599Z,35.50
2022-11-04T06:47:24.767Z,39.03
2022-11-04T06:49:52.611Z,36.65
2022-11-04T06:52:20.331Z,38.28
2022-11-04T06:54:48.066Z,37.63
2022-11-04T06:57:15.420Z,41.53
2022-11-04T06:59:43.068Z,39.63
2022-11-04T07:02:11.745Z,45.63
2022-11-04T07:04:39.171Z,39.50
2022-11-04T07:07:06.894Z,36.40
2022-11-04T07:09:35.402Z,33.43
2022-11-04T07:12:02.834Z,35.08
2022-11-04T07:14:31.333Z,37.30
2022-11-04T07:16:58.734Z,39.83
2022-11-04T07:19:26.159Z,34.65
2022-11-04T07:21:53.897Z,39.63
2022-11-04T07:24:21.414Z,34.78
2022-11-04T07:26:48.858Z,39.78
2022-11-04T07:29:16.594Z,31.25
2022-11-04T07:31:44.029Z,39.15
2022-11-04T07:34:11.446Z,34.50
2022-11-04T07:36:39.162Z,37.15
2022-11-04T07:39:06.827Z,29.80
2022-11-04T07:41:34.794Z,28.60
2022-11-04T07:44:05.379Z,32.45
2022-11-04T07:46:33.547Z,30.37
2022-11-04T07:49:00.918Z,31.40
2022-11-04T07:51:28.749Z,27.65
2022-11-04T07:53:56.345Z,26.27
2022-11-04T07:56:24.195Z,29.02
2022-11-04T07:58:52.676Z,27.40
2022-11-04T08:01:23.443Z,28.42
2022-11-04T08:03:51.881Z,28.08
2022-11-04T08:06:20.637Z,31.55
2022-11-04T08:08:48.451Z,27.48
2022-11-04T08:11:19.436Z,28.73
2022-11-04T08:13:47.641Z,32.35
2022-11-04T08:16:20.128Z,35.83
2022-11-04T08:18:49.534Z,33.65
2022-11-04T08:21:17.274Z,32.45
2022-11-04T08:23:46.178Z,36.30
2022-11-04T08:26:17.770Z,40.30
2022-11-04T08:28:45.642Z,42.17
2022-11-04T08:31:19.220Z,38.70
2022-11-04T08:33:47.145Z,41.65
2022-11-04T08:36:21.848Z,39.87
2022-11-04T08:38:50.075Z,38.55
2022-11-04T08:41:20.988Z,39.83
2022-11-04T08:43:48.806Z,37.50
2022-11-04T08:46:16.682Z,37.35
2022-11-04T08:48:45.445Z,37.37
2022-11-04T08:51:17.146Z,41.67
2022-11-04T08:53:44.598Z,36.90
2022-11-04T08:56:17.779Z,39.08
2022-11-04T08:58:45.851Z,39.35
2022-11-04T09:01:13.840Z,43.23
2022-11-04T09:03:42.017Z,40.42
2022-11-04T09:06:12.846Z,40.50
2022-11-04T09:08:41.152Z,36.67
2022-11-04T09:11:11.926Z,39.40
2022-11-04T09:13:40.395Z,36.03
2022-11-04T09:16:09.110Z,39.25
2022-11-04T09:18:36.541Z,37.88
2022-11-04T09:21:06.435Z,46.75
2022-11-04T09:23:34.411Z,41.88
2022-11-04T09:26:14.244Z,42.93
2022-11-04T09:28:42.237Z,39.00
2022-11-04T09:31:13.499Z,41.97
2022-11-04T09:33:41.171Z,35.67
2022-11-04T09:36:10.387Z,34.50
2022-11-04T09:38:39.936Z,38.60
2022-11-04T09:41:45.923Z,38.95
2022-11-04T09:44:19.442Z,35.72
2022-11-04T09:46:49.534Z,35.28
2022-11-04T09:49:17.725Z,34.17
2022-11-04T09:51:54.188Z,39.13
2022-11-04T09:54:27.188Z,36.35
2022-11-04T09:56:57.934Z,35.80
2022-11-04T09:59:29.918Z,38.13
2022-11-04T10:02:22.248Z,37.10
2022-11-04T10:05:12.293Z,35.03
2022-11-04T10:08:30.727Z,36.78
2022-11-04T10:11:15.570Z,37.17
2022-11-04T10:14:10.100Z,34.30
2022-11-04T10:16:49.879Z,33.00
2022-11-04T10:19:33.228Z,36.93
2022-11-04T10:22:09.968Z,38.33
2022-11-04T10:24:37.286Z,37.72
2022-11-04T10:27:13.377Z,35.80
2022-11-04T10:29:58.078Z,37.03
2022-11-04T10:32:35.644Z,34.53
2022-11-04T10:35:37.390Z,35.63
2022-11-04T10:38:39.526Z,35.28
2022-11-04T10:41:22.651Z,34.42
2022-11-04T10:44:31.663Z,33.85
2022-11-04T10:47:18.838Z,30.23
2022-11-04T10:50:27.867Z,36.75
2022-11-04T10:53:10.501Z,34.67
2022-11-04T10:55:51.875Z,35.42
2022-11-04T10:58:30.036Z,32.58
2022-11-04T11:00:58.521Z,31.63
2022-11-04T11:03:25.918Z,32.35
2022-11-04T11:05:55.122Z,34.17
2022-11-04T11:08:33.091Z,32.30
2022-11-04T11:11:00.694Z,31.52
2022-11-04T11:13:36.314Z,34.93
2022-11-04T11:16:12.959Z,28.83
2022-11-04T11:18:41.709Z,36.28
2022-11-04T11:21:12.861Z,33.05
2022-11-04T11:23:41.735Z,33.40
2022-11-04T11:26:13.962Z,35.27
2022-11-04T11:28:47.757Z,30.23
2022-11-04T11:31:24.513Z,33.55
2022-11-04T11:33:58.088Z,32.17
2022-11-04T11:36:30.832Z,35.60
2022-11-04T11:39:05.947Z,37.97
2022-11-04T11:41:52.025Z,38.20
2022-11-04T11:44:37.058Z,35.95
2022-11-04T11:47:07.915Z,36.70
2022-11-04T11:49:38.059Z,38.92
2022-11-04T11:52:27.742Z,37.37
2022-11-04T11:55:05.387Z,35.53
2022-11-04T12:00:51.973Z,41.67
2022-11-04T12:06:27.182Z,39.73
2022-11-04T12:09:16.847Z,36.80
2022-11-04T12:12:07.099Z,38.08
2022-11-04T12:14:56.456Z,33.00
2022-11-04T12:17:23.850Z,39.28
2022-11-04T12:20:14.930Z,42.73
2022-11-04T12:22:51.423Z,35.00
2022-11-04T12:25:27.805Z,38.85
2022-11-04T12:28:10.446Z,38.20
2022-11-04T12:30:54.934Z,40.35
2022-11-04T12:33:43.955Z,43.67
2022-11-04T12:36:26.605Z,39.50
2022-11-04T12:39:09.872Z,45.22
2022-11-04T12:42:18.927Z,41.72
2022-11-04T12:44:47.858Z,45.80
2022-11-04T12:47:24.873Z,42.30
2022-11-04T12:50:04.353Z,42.45
2022-11-04T12:52:50.799Z,43.42
2022-11-04T12:55:43.670Z,46.33
2022-11-04T12:58:21.108Z,48.55
2022-11-04T13:00:59.516Z,44.37
2022-11-04T13:03:34.885Z,46.83
2022-11-04T13:06:10.606Z,43.08
2022-11-04T13:09:13.590Z,45.05
2022-11-04T13:11:51.017Z,49.72
2022-11-04T13:14:29.389Z,47.57
2022-11-04T13:17:03.547Z,46.92
2022-11-04T13:19:43.802Z,46.03
2022-11-04T13:22:18.277Z,44.38
2022-11-04T13:24:57.010Z,45.38
2022-11-04T13:27:33.393Z,46.27
2022-11-04T13:30:06.255Z,44.67
2022-11-04T13:32:55.287Z,44.08
2022-11-04T13:35:35.417Z,42.72
2022-11-04T13:38:14.643Z,42.65
2022-11-04T13:41:07.576Z,39.67
2022-11-04T13:43:41.866Z,41.85
2022-11-04T13:46:28.476Z,41.22
2022-11-04T13:49:06.364Z,41.47
2022-11-04T13:51:46.113Z,44.78
2022-11-04T13:54:33.141Z,39.07
2022-11-04T13:57:08.815Z,41.88
2022-11-04T13:59:36.956Z,41.53
2022-11-04T14:02:14.016Z,39.35
2022-11-04T14:04:43.822Z,37.15
2022-11-04T14:07:18.039Z,39.90
2022-11-04T14:09:55.616Z,43.10
2022-11-04T14:12:32.680Z,41.22
2022-11-04T14:15:13.321Z,40.35
2022-11-04T14:17:41.633Z,39.38
2022-11-04T14:20:22.360Z,39.23
2022-11-04T14:22:54.709Z,40.15
2022-11-04T14:25:27.568Z,44.67
2022-11-04T14:27:58.400Z,37.70
2022-11-04T14:30:58.587Z,37.08
2022-11-04T14:33:47.373Z,39.50
2022-11-04T14:36:25.130Z,37.60
2022-11-04T14:39:01.213Z,37.15
2022-11-04T14:41:28.826Z,38.13
2022-11-04T14:44:03.245Z,38.00
2022-11-04T14:46:36.476Z,37.73
2022-11-04T14:49:05.046Z,39.88
2022-11-04T14:51:41.226Z,36.40
2022-11-04T14:54:19.862Z,35.08
2022-11-04T14:56:47.707Z,35.38
2022-11-04T14:59:29.721Z,38.80
2022-11-04T15:01:57.590Z,34.75
2022-11-04T15:04:28.688Z,39.92
2022-11-04T15:06:57.800Z,38.15
2022-11-04T15:09:36.016Z,38.50
2022-11-04T15:12:28.027Z,34.70
2022-11-04T15:14:56.617Z,39.92
2022-11-04T15:17:28.573Z,33.40
2022-11-04T15:19:59.653Z,36.15
2022-11-04T15:22:29.359Z,33.55
2022-11-04T15:25:02.659Z,34.17
2022-11-04T15:27:30.505Z,32.65
2022-11-04T15:30:03.041Z,32.72
2022-11-04T15:32:30.775Z,37.03
2022-11-04T15:34:59.617Z,37.20
2022-11-04T15:37:29.041Z,36.00
2022-11-04T15:39:58.345Z,37.10
2022-11-04T15:42:43.817Z,34.55
2022-11-04T15:45:29.245Z,35.70
2022-11-04T15:48:23.034Z,34.58
2022-11-04T15:51:24.175Z,33.50
2022-11-04T15:54:00.201Z,33.13
2022-11-04T15:56:31.530Z,32.38
2022-11-04T15:59:01.464Z,30.67
2022-11-04T16:01:29.428Z,30.30
2022-11-04T16:04:00.483Z,31.40
2022-11-04T16:06:42.976Z,34.65
2022-11-04T16:09:11.405Z,36.85
2022-11-04T16:11:39.066Z,32.28
2022-11-04T16:14:23.489Z,32.70
2022-11-04T16:16:53.195Z,33.63
2022-11-04T16:19:24.345Z,32.00
2022-11-04T16:22:05.125Z,36.90
2022-11-04T16:24:34.784Z,34.30
2022-11-04T16:27:02.579Z,35.33
2022-11-04T16:29:32.850Z,33.50
2022-11-04T16:32:18.530Z,31.98
2022-11-04T16:34:48.689Z,26.23
2022-11-04T16:37:16.052Z,30.98
2022-11-04T16:39:45.236Z,30.73
2022-11-04T16:42:14.855Z,32.03
2022-11-04T16:44:51.181Z,28.40
2022-11-04T16:47:19.398Z,27.75
2022-11-04T16:49:47.314Z,32.55
2022-11-04T16:52:23.212Z,31.73
2022-11-04T16:54:50.989Z,33.63
2022-11-04T16:57:18.398Z,29.00
2022-11-04T16:59:45.827Z,26.20
2022-11-04T17:02:27.941Z,31.83
2022-11-04T17:04:55.792Z,32.80
2022-11-04T17:07:40.672Z,32.87
2022-11-04T17:10:17.185Z,29.75
2022-11-04T17:12:46.284Z,29.87
2022-11-04T17:15:15.180Z,32.50
2022-11-04T17:17:43.322Z,31.30
2022-11-04T17:20:14.060Z,35.50
2022-11-04T17:22:43.138Z,32.50
2022-11-04T17:25:20.780Z,37.58
2022-11-04T17:27:48.758Z,34.22
2022-11-04T17:30:17.791Z,40.75
2022-11-04T17:32:46.285Z,36.97
2022-11-04T17:35:14.786Z,38.72
2022-11-04T17:37:42.751Z,47.28
2022-11-04T17:40:17.942Z,47.38
2022-11-04T17:43:10.406Z,39.10
2022-11-04T17:45:39.778Z,38.73
2022-11-04T17:48:08.508Z,41.45
2022-11-04T17:50:38.888Z,38.00
2022-11-04T17:53:07.547Z,30.88
2022-11-04T17:55:40.627Z,29.12
2022-11-04T17:58:08.742Z,26.50
2022-11-04T18:00:36.319Z,32.22
2022-11-04T18:03:04.115Z,29.33
2022-11-04T18:05:31.555Z,29.67
2022-11-04T18:07:59.117Z,30.37
2022-11-04T18:10:26.850Z,33.03
2022-11-04T18:12:54.279Z,30.17
2022-11-04T18:15:21.770Z,28.05
2022-11-04T18:17:50.822Z,27.52
2022-11-04T18:20:18.297Z,27.70
2022-11-04T18:22:45.765Z,26.30
2022-11-04T18:25:13.552Z,25.23
2022-11-04T18:27:41.038Z,28.65
2022-11-04T18:30:09.040Z,28.92
2022-11-04T18:32:36.882Z,26.35
2022-11-04T18:35:04.630Z,26.63
2022-11-04T18:37:32.115Z,31.33
2022-11-04T18:39:59.864Z,27.02
2022-11-04T18:42:27.339Z,24.48
2022-11-04T18:44:55.227Z,26.02
2022-11-04T18:47:24.044Z,24.13
2022-11-04T18:49:51.682Z,22.62
2022-11-04T18:52:19.101Z,23.60
2022-11-04T18:54:46.794Z,25.50
2022-11-04T18:57:14.205Z,25.45
2022-11-04T18:59:41.750Z,27.53
2022-11-04T19:02:20.386Z,28.67
2022-11-04T19:04:47.922Z,24.98
2022-11-04T19:07:15.633Z,23.83
2022-11-04T19:09:47.658Z,27.52
2022-11-04T19:12:35.671Z,22.67
2022-11-04T19:15:04.598Z,25.27
2022-11-04T19:17:32.501Z,23.08
2022-11-04T19:20:00.030Z,22.87
2022-11-04T19:22:27.479Z,25.60
2022-11-04T19:24:55.214Z,43.23
2022-11-04T19:27:25.008Z,37.45
2022-11-04T19:29:52.766Z,36.72
2022-11-04T19:32:20.449Z,35.10
2022-11-04T19:34:48.211Z,33.25
2022-11-04T19:37:15.725Z,29.40
2022-11-04T19:39:43.496Z,39.42
2022-11-04T19:42:30.483Z,31.25
2022-11-04T19:44:58.283Z,27.75
2022-11-04T19:47:25.748Z,26.83
2022-11-04T19:49:53.250Z,24.83
2022-11-04T19:52:20.964Z,29.55
2022-11-04T19:54:48.421Z,24.02
2022-11-04T19:57:16.425Z,24.85
2022-11-04T19:59:44.155Z,25.25
2022-11-04T20:02:15.108Z,28.17
2022-11-04T20:04:43.038Z,29.90
2022-11-04T20:07:10.503Z,33.45
2022-11-04T20:09:38.332Z,40.20
2022-11-04T20:12:24.628Z,36.85
2022-11-04T20:14:55.847Z,35.63
2022-11-04T20:17:24.252Z,33.63
2022-11-04T20:19:51.705Z,33.08
2022-11-04T20:22:19.124Z,30.73
2022-11-04T20:24:46.882Z,33.65
2022-11-04T20:27:15.322Z,33.60
2022-11-04T20:29:43.152Z,30.00
2022-11-04T20:32:10.870Z,31.92
2022-11-04T20:34:41.591Z,30.90
2022-11-04T20:37:12.535Z,33.05
2022-11-04T20:39:40.542Z,32.30
2022-11-04T20:42:07.986Z,34.13
2022-11-04T20:44:35.411Z,35.10
2022-11-04T20:47:03.204Z,28.12
2022-11-04T20:49:30.638Z,26.83
2022-11-04T20:51:58.031Z,26.67
2022-11-04T20:54:25.863Z,28.40
2022-11-04T20:56:53.344Z,28.02
2022-11-04T20:59:20.826Z,26.23
2022-11-04T21:01:50.147Z,27.75
2022-11-04T21:04:20.047Z,23.67
2022-11-04T21:06:49.313Z,26.92
2022-11-04T21:09:18.917Z,25.27
2022-11-04T21:11:46.998Z,24.50
2022-11-04T21:14:16.486Z,23.15
2022-11-04T21:16:44.146Z,21.90
2022-11-04T21:19:12.458Z,20.35
2022-11-04T21:21:41.705Z,19.40
2022-11-04T21:24:12.698Z,18.75
2022-11-04T21:26:40.669Z,19.42
2022-11-04T21:29:11.590Z,22.37
2022-11-04T21:31:39.195Z,23.08
2022-11-04T21:34:07.239Z,18.33
2022-11-04T21:36:34.678Z,19.23
2022-11-04T21:39:02.575Z,15.85
2022-11-04T21:41:37.303Z,16.57
2022-11-04T21:44:08.379Z,19.37
2022-11-04T21:46:37.169Z,16.45
2022-11-04T21:49:05.019Z,16.92
2022-11-04T21:51:34.287Z,17.40
2022-11-04T21:54:06.234Z,15.20
2022-11-04T21:56:34.057Z,16.15
2022-11-04T21:59:02.425Z,11.70
2022-11-04T22:01:31.229Z,11.20
2022-11-04T22:04:01.740Z,12.13
2022-11-04T22:06:34.610Z,12.70
2022-11-04T22:09:09.124Z,12.50
2022-11-04T22:11:38.945Z,13.80
2022-11-04T22:14:08.546Z,17.02
2022-11-04T22:16:38.947Z,17.92
2022-11-04T22:19:10.429Z,25.57
2022-11-04T22:21:43.333Z,20.55
2022-11-04T22:24:16.294Z,21.20
2022-11-04T22:26:44.363Z,19.12
2022-11-04T22:29:12.108Z,19.00
2022-11-04T22:31:41.591Z,17.83
2022-11-04T22:34:09.798Z,21.10
2022-11-04T22:36:38.172Z,19.12
2022-11-04T22:39:05.794Z,18.50
2022-11-04T22:41:35.606Z,18.23
2022-11-04T22:44:03.654Z,15.30
2022-11-04T22:46:32.962Z,13.38
2022-11-04T22:49:00.361Z,14.32
2022-11-04T22:51:29.755Z,13.82
2022-11-04T22:54:02.905Z,12.90
2022-11-04T22:56:34.373Z,10.83
2022-11-04T22:59:02.011Z,11.12
2022-11-04T23:01:31.586Z,11.98
2022-11-04T23:03:59.948Z,9.40
2022-11-04T23:06:27.377Z,11.35
2022-11-04T23:08:59.601Z,9.27
2022-11-04T23:11:48.525Z,11.00
2022-11-04T23:14:39.586Z,14.57
2022-11-04T23:17:36.293Z,10.20
2022-11-04T23:20:07.821Z,7.70
2022-11-04T23:22:53.987Z,10.73
2022-11-04T23:25:21.457Z,10.18
2022-11-04T23:28:09.738Z,9.38
2022-11-04T23:30:40.949Z,14.45
2022-11-04T23:33:11.640Z,11.38
2022-11-04T23:36:03.834Z,11.77
2022-11-04T23:38:32.297Z,10.43
2022-11-04T23:41:21.341Z,12.60
2022-11-04T23:43:49.222Z,8.85
2022-11-04T23:46:41.053Z,8.73
2022-11-04T23:49:30.338Z,6.53
2022-11-04T23:52:16.521Z,5.03
2022-11-04T23:55:02.846Z,4.75
2022-11-04T23:57:48.854Z,3.37
